KFTW

Fort Worth Meacham International Airport

Fort Worth, Texas, USA
METAR KFTW 122053Z 18013G18KT 10SM FEW015 17/12 A2984 RMK AO2 SLP100 T01670117 56033
Observed Flight Rules
Dec-12 @ 20:53 UTC (15 minutes ago) Visual Flight Rules
Wind Visibility Clouds
180° at 13 knots
 Gusting to 18 knots
10 miles
  • Few at 1,500' AGL
Temperatures Readings
Current 17°C / 63°F
Dewpoint 12°C / 54°F
Humidity 73%
Altimeter 29.84" Hg
Pressure 1010 hPa
Elevation 214
METAR KFTW 122053Z 18013G18KT 10SM FEW015 17/12 A2984 RMK AO2 SLP100 T01670117 56033
Observed Flight Rules
Dec-12 @ 20:53 UTC
(15 minutes ago)
VFR
Wind Visibility
180° at 13 knots
 Gusting to 18 knots
10 miles
Clouds
  • Few at 1,500' AGL
Temperature Dewpoint
17°C / 63°F 12°C / 54°F
Humidity Altimeter Pressure
73% 29.84" Hg 1010 hPa